Terminal Aerodrome Forecast
Issued by NWS

Home | Current Version | Previous Version | Graphics & Text | Print | Product List | Glossary On
Versions: 1 2 3 4 5 6 7 8 9 10 11 12 13 14 15 16
500
FTUS43 KTOP 222323
TAFMHK
TAF
KMHK 222323Z 2300/2324 13012KT P6SM OVC040
     FM230400 14009KT P6SM -DZ OVC025
     FM230600 15009KT 6SM -DZ OVC015
     FM231000 15011KT 5SM -DZ OVC008
     FM231700 17018G27KT P6SM OVC015
     FM232100 18020G29KT P6SM BKN035=

USA.gov is the U.S. government's official web portal to all federal, state and local government web resources and services.